createdAt,value
2022-10-06T00:03:49.453Z,735.93622
2022-10-06T00:18:51.711Z,655.63043
2022-10-06T00:33:54.035Z,521.388
2022-10-06T00:48:56.196Z,353.58499
2022-10-06T01:03:58.580Z,173.79601
2022-10-06T01:19:00.909Z,56.33388
2022-10-06T01:34:03.285Z,9.58875
2022-10-06T01:49:05.544Z,1.19859
2022-10-06T02:04:07.903Z,0
2022-10-06T02:19:10.240Z,0
2022-10-06T02:34:12.751Z,0
2022-10-06T02:49:15.047Z,0
2022-10-06T03:04:17.352Z,0
2022-10-06T03:19:19.641Z,0
2022-10-06T03:34:21.898Z,0
2022-10-06T03:49:24.342Z,0
2022-10-06T04:04:26.850Z,0
2022-10-06T04:19:29.166Z,0
2022-10-06T04:34:31.441Z,0
2022-10-06T04:49:33.739Z,0
2022-10-06T05:04:35.987Z,0
2022-10-06T05:19:38.305Z,0
2022-10-06T05:34:40.613Z,0
2022-10-06T05:49:42.902Z,0
2022-10-06T06:04:45.218Z,0
2022-10-06T06:19:47.588Z,0
2022-10-06T06:34:49.865Z,0
2022-10-06T06:49:52.184Z,0
2022-10-06T07:04:54.606Z,0
2022-10-06T07:19:56.897Z,0
2022-10-06T07:34:59.365Z,0
2022-10-06T07:50:01.720Z,0
2022-10-06T08:05:04.282Z,0
2022-10-06T08:20:06.559Z,0
2022-10-06T08:35:08.881Z,0
2022-10-06T08:50:11.184Z,0
2022-10-06T09:05:13.459Z,0
2022-10-06T09:20:15.814Z,0
2022-10-06T09:35:18.166Z,0
2022-10-06T09:50:20.549Z,0
2022-10-06T10:05:22.865Z,0
2022-10-06T10:20:25.232Z,0
2022-10-06T10:35:27.503Z,0
2022-10-06T10:50:29.827Z,0
2022-10-06T11:05:32.345Z,0
2022-10-06T11:20:34.625Z,0
2022-10-06T11:35:36.893Z,0
2022-10-06T11:50:39.195Z,0
2022-10-06T12:05:56.591Z,0
2022-10-06T12:20:59.600Z,0
2022-10-06T12:36:02.019Z,0
2022-10-06T12:51:04.304Z,0
2022-10-06T13:06:06.571Z,0
2022-10-06T13:21:08.995Z,0
2022-10-06T13:36:11.334Z,2.39719
2022-10-06T13:51:13.633Z,37.15639
2022-10-06T14:06:15.873Z,118.66072
2022-10-06T14:21:18.167Z,274.47784
2022-10-06T14:36:20.493Z,451.86963
2022-10-06T14:51:22.786Z,636.45294
2022-10-06T15:06:25.140Z,1144.65649
2022-10-06T15:21:27.435Z,1648.06555
2022-10-06T15:36:29.757Z,1811.07422
2022-10-06T15:51:32.010Z,2422.35669
2022-10-06T16:06:34.329Z,5716.09082
2022-10-06T16:21:36.864Z,5127.58154
2022-10-06T16:36:39.218Z,8488.43652
2022-10-06T16:51:41.806Z,3165.48438
2022-10-06T17:06:44.235Z,5869.51074
2022-10-06T17:21:47.685Z,4486.33398
2022-10-06T17:36:51.692Z,3652.11328
2022-10-06T17:51:54.199Z,2242.56787
2022-10-06T18:06:56.474Z,3703.65283
2022-10-06T18:21:58.766Z,3883.44189
2022-10-06T18:37:01.039Z,3882.24316
2022-10-06T18:52:03.362Z,3894.229
2022-10-06T19:07:05.659Z,3940.97437
2022-10-06T19:22:07.944Z,3644.92163
2022-10-06T19:37:10.391Z,3915.80371
2022-10-06T19:52:12.740Z,3914.60522
2022-10-06T20:07:15.048Z,3972.1377
2022-10-06T20:22:17.371Z,4027.27295
2022-10-06T20:37:19.710Z,3298.52832
2022-10-06T20:52:22.080Z,3497.49487
2022-10-06T21:07:24.516Z,3708.44727
2022-10-06T21:22:27.145Z,3658.1062
2022-10-06T21:37:29.507Z,3460.33838
2022-10-06T21:52:31.802Z,3288.9397
2022-10-06T22:07:34.034Z,3224.21558
2022-10-06T22:22:36.413Z,2657.28101
2022-10-06T22:37:38.766Z,2484.68359
2022-10-06T22:52:40.990Z,2169.45361
2022-10-06T23:07:43.511Z,2063.97729
2022-10-06T23:22:45.938Z,1851.82642
2022-10-06T23:37:48.384Z,1172.22412
2022-10-06T23:52:50.706Z,1021.20135
